createdAt,value
2023-08-12T00:01:07.610Z,17.56
2023-08-12T00:03:35.662Z,17.59
2023-08-12T00:06:06.404Z,17.60
2023-08-12T00:08:34.550Z,17.58
2023-08-12T00:11:02.557Z,17.59
2023-08-12T00:13:30.671Z,17.48
2023-08-12T00:15:58.652Z,17.44
2023-08-12T00:18:28.049Z,17.35
2023-08-12T00:20:56.256Z,17.37
2023-08-12T00:23:24.199Z,17.36
2023-08-12T00:25:52.132Z,17.28
2023-08-12T00:28:20.093Z,17.23
2023-08-12T00:30:50.379Z,17.22
2023-08-12T00:33:19.541Z,17.14
2023-08-12T00:35:49.129Z,17.15
2023-08-12T00:38:17.348Z,17.16
2023-08-12T00:40:45.358Z,17.18
2023-08-12T00:43:13.686Z,17.14
2023-08-12T00:45:42.717Z,17.14
2023-08-12T00:48:14.456Z,17.13
2023-08-12T00:50:43.731Z,17.11
2023-08-12T00:53:14.434Z,17.07
2023-08-12T00:55:42.600Z,17.08
2023-08-12T00:58:10.788Z,17.06
2023-08-12T01:00:39.486Z,17.06
2023-08-12T01:03:08.083Z,17.04
2023-08-12T01:05:38.482Z,16.98
2023-08-12T01:08:07.962Z,16.98
2023-08-12T01:10:39.051Z,16.92
2023-08-12T01:13:18.715Z,16.93
2023-08-12T01:15:47.596Z,16.94
2023-08-12T01:18:16.585Z,16.94
2023-08-12T01:20:45.167Z,16.91
2023-08-12T01:23:15.589Z,16.98
2023-08-12T01:25:44.654Z,16.97
2023-08-12T01:28:12.721Z,16.96
2023-08-12T01:30:50.293Z,16.97
2023-08-12T01:33:37.144Z,16.97
2023-08-12T01:36:11.647Z,16.97
2023-08-12T01:38:43.033Z,16.99
2023-08-12T01:41:13.560Z,16.93
2023-08-12T01:43:42.683Z,16.89
2023-08-12T01:46:11.973Z,16.90
2023-08-12T01:48:39.972Z,16.82
2023-08-12T01:51:09.211Z,16.80
2023-08-12T01:53:37.250Z,16.76
2023-08-12T01:56:06.666Z,16.67
2023-08-12T01:58:34.661Z,16.67
2023-08-12T02:01:02.737Z,16.63
2023-08-12T02:03:30.801Z,16.66
2023-08-12T02:05:58.908Z,16.71
2023-08-12T02:08:26.891Z,16.70
2023-08-12T02:10:54.873Z,16.72
2023-08-12T02:13:25.537Z,16.73
2023-08-12T02:15:53.754Z,16.74
2023-08-12T02:18:24.424Z,16.71
2023-08-12T02:20:52.522Z,16.65
2023-08-12T02:23:20.769Z,16.62
2023-08-12T02:25:49.508Z,16.60
2023-08-12T02:28:17.453Z,16.52
2023-08-12T02:30:46.813Z,16.53
2023-08-12T02:33:14.796Z,16.55
2023-08-12T02:35:43.896Z,16.51
2023-08-12T02:38:12.115Z,16.46
2023-08-12T02:40:40.113Z,16.45
2023-08-12T02:43:08.030Z,16.42
2023-08-12T02:45:36.009Z,16.40
2023-08-12T02:48:06.221Z,16.40
2023-08-12T02:50:34.239Z,16.40
2023-08-12T02:53:02.272Z,16.38
2023-08-12T02:55:30.287Z,16.40
2023-08-12T02:57:58.290Z,16.34
2023-08-12T03:00:26.306Z,16.30
2023-08-12T03:02:54.423Z,16.26
2023-08-12T03:05:24.095Z,16.25
2023-08-12T03:07:52.711Z,16.17
2023-08-12T03:10:20.998Z,16.07
2023-08-12T03:12:48.997Z,16.10
2023-08-12T03:15:17.711Z,16.16
2023-08-12T03:17:45.809Z,16.08
2023-08-12T03:20:13.883Z,16.04
2023-08-12T03:22:44.106Z,16.04
2023-08-12T03:25:12.091Z,16.03
2023-08-12T03:27:41.206Z,16.04
2023-08-12T03:30:12.960Z,15.93
2023-08-12T03:32:43.254Z,15.91
2023-08-12T03:35:12.054Z,15.84
2023-08-12T03:37:39.976Z,15.84
2023-08-12T03:40:11.124Z,15.86
2023-08-12T03:42:40.785Z,15.88
2023-08-12T03:45:09.826Z,15.90
2023-08-12T03:47:38.007Z,15.92
2023-08-12T03:50:07.442Z,15.86
2023-08-12T03:52:35.404Z,15.86
2023-08-12T03:55:03.602Z,15.83
2023-08-12T03:57:33.678Z,15.81
2023-08-12T04:00:02.215Z,15.82
2023-08-12T04:02:30.692Z,15.89
2023-08-12T04:04:58.682Z,15.89
2023-08-12T04:07:28.049Z,15.84
2023-08-12T04:09:55.968Z,15.85
2023-08-12T04:12:23.989Z,15.79
2023-08-12T04:14:53.363Z,15.84
2023-08-12T04:17:21.409Z,15.79
2023-08-12T04:19:50.467Z,15.76
2023-08-12T04:22:18.865Z,15.83
2023-08-12T04:24:46.834Z,15.84
2023-08-12T04:27:15.262Z,15.85
2023-08-12T04:29:43.491Z,15.90
2023-08-12T04:32:12.865Z,15.89
2023-08-12T04:34:41.634Z,15.92
2023-08-12T04:37:09.914Z,15.95
2023-08-12T04:39:38.137Z,16.03
2023-08-12T04:42:06.952Z,16.08
2023-08-12T04:44:34.996Z,16.15
2023-08-12T04:47:04.105Z,16.18
2023-08-12T04:49:35.765Z,16.24
2023-08-12T04:52:03.738Z,16.30
2023-08-12T04:54:31.997Z,16.38
2023-08-12T04:57:00.436Z,16.44
2023-08-12T04:59:28.430Z,16.48
2023-08-12T05:02:04.878Z,16.55
2023-08-12T05:04:36.748Z,16.60
2023-08-12T05:07:04.777Z,16.66
2023-08-12T05:09:33.105Z,16.72
2023-08-12T05:12:01.160Z,16.76
2023-08-12T05:14:29.215Z,16.81
2023-08-12T05:16:57.154Z,16.84
2023-08-12T05:19:25.133Z,16.87
2023-08-12T05:21:54.550Z,16.90
2023-08-12T05:24:22.653Z,16.96
2023-08-12T05:27:03.042Z,17.02
2023-08-12T05:29:31.247Z,17.08
2023-08-12T05:31:59.534Z,17.12
2023-08-12T05:34:28.170Z,17.14
2023-08-12T05:36:57.976Z,17.19
2023-08-12T05:39:25.935Z,17.23
2023-08-12T05:41:54.099Z,17.30
2023-08-12T05:44:22.121Z,17.38
2023-08-12T05:46:50.119Z,17.45
2023-08-12T05:49:18.072Z,17.50
2023-08-12T05:51:45.979Z,17.54
2023-08-12T05:54:15.300Z,17.59
2023-08-12T05:56:43.280Z,17.65
2023-08-12T05:59:11.511Z,17.70
2023-08-12T06:01:39.474Z,17.76
2023-08-12T06:04:07.869Z,17.80
2023-08-12T06:06:35.960Z,17.84
2023-08-12T06:09:04.867Z,17.88
2023-08-12T06:11:34.391Z,17.93
2023-08-12T06:14:02.400Z,17.98
2023-08-12T06:16:30.317Z,18.04
2023-08-12T06:18:58.276Z,18.09
2023-08-12T06:21:26.296Z,18.13
2023-08-12T06:23:54.287Z,18.16
2023-08-12T06:26:22.193Z,18.20
2023-08-12T06:28:51.575Z,18.24
2023-08-12T06:31:19.638Z,18.28
2023-08-12T06:33:47.626Z,18.33
2023-08-12T06:36:15.557Z,18.37
2023-08-12T06:38:43.491Z,18.42
2023-08-12T06:41:11.428Z,18.46
2023-08-12T06:43:39.455Z,18.51
2023-08-12T06:46:08.806Z,18.56
2023-08-12T06:48:36.795Z,18.61
2023-08-12T06:51:11.575Z,18.70
2023-08-12T06:53:40.128Z,18.75
2023-08-12T06:56:08.761Z,18.81
2023-08-12T06:58:36.685Z,18.85
2023-08-12T07:01:04.711Z,18.90
2023-08-12T07:03:34.869Z,18.96
2023-08-12T07:06:03.290Z,19.02
2023-08-12T07:08:31.207Z,19.07
2023-08-12T07:10:59.242Z,19.14
2023-08-12T07:13:27.210Z,19.21
2023-08-12T07:15:55.210Z,19.29
2023-08-12T07:18:24.097Z,19.38
2023-08-12T07:20:53.576Z,19.47
2023-08-12T07:23:21.512Z,19.53
2023-08-12T07:25:49.726Z,19.62
2023-08-12T07:28:17.916Z,19.68
2023-08-12T07:30:46.238Z,19.79
2023-08-12T07:33:17.180Z,19.89
2023-08-12T07:35:45.183Z,19.96
2023-08-12T07:38:14.754Z,20.04
2023-08-12T07:40:42.832Z,20.13
2023-08-12T07:43:10.824Z,20.21
2023-08-12T07:45:38.827Z,20.32
2023-08-12T07:48:07.411Z,20.41
2023-08-12T07:50:35.515Z,20.46
2023-08-12T07:53:03.540Z,20.50
2023-08-12T07:55:32.900Z,20.59
2023-08-12T07:58:00.848Z,20.64
2023-08-12T08:00:28.829Z,20.68
2023-08-12T08:02:56.861Z,20.72
2023-08-12T08:05:24.933Z,20.79
2023-08-12T08:07:52.966Z,20.86
2023-08-12T08:10:20.957Z,20.94
2023-08-12T08:12:50.286Z,20.97
2023-08-12T08:15:18.249Z,21.01
2023-08-12T08:17:46.353Z,21.05
2023-08-12T08:20:14.690Z,21.13
2023-08-12T08:22:42.661Z,21.16
2023-08-12T08:25:10.675Z,21.26
2023-08-12T08:27:41.069Z,21.30
2023-08-12T08:30:13.256Z,21.37
2023-08-12T08:32:41.290Z,21.39
2023-08-12T08:35:09.639Z,21.40
2023-08-12T08:37:37.648Z,21.46
2023-08-12T08:40:06.225Z,21.52
2023-08-12T08:42:34.762Z,21.60
2023-08-12T08:45:04.275Z,21.64
2023-08-12T08:47:34.063Z,21.69
2023-08-12T08:50:02.711Z,21.78
2023-08-12T08:52:31.080Z,21.84
2023-08-12T08:55:03.251Z,21.91
2023-08-12T08:57:39.929Z,21.99
2023-08-12T09:00:17.994Z,22.07
2023-08-12T09:02:49.677Z,22.10
2023-08-12T09:05:18.416Z,22.25
2023-08-12T09:07:46.801Z,22.24
2023-08-12T09:10:15.721Z,22.30
2023-08-12T09:12:45.556Z,22.37
2023-08-12T09:15:13.822Z,22.50
2023-08-12T09:17:41.935Z,22.47
2023-08-12T09:20:13.756Z,22.51
2023-08-12T09:22:42.365Z,22.67
2023-08-12T09:25:11.705Z,22.68
2023-08-12T09:27:39.979Z,22.72
2023-08-12T09:30:10.021Z,22.74
2023-08-12T09:32:39.911Z,22.75
2023-08-12T09:35:17.521Z,22.82
2023-08-12T09:37:47.047Z,22.87
2023-08-12T09:40:16.408Z,22.99
2023-08-12T09:42:47.669Z,23.08
2023-08-12T09:45:16.452Z,23.25
2023-08-12T09:47:44.523Z,23.27
2023-08-12T09:50:12.651Z,23.26
2023-08-12T09:52:41.623Z,23.35
2023-08-12T09:55:13.905Z,23.47
2023-08-12T09:57:45.422Z,23.53
2023-08-12T10:00:17.978Z,23.47
2023-08-12T10:02:46.888Z,23.48
2023-08-12T10:05:20.860Z,23.59
2023-08-12T10:07:49.676Z,23.61
2023-08-12T10:10:19.557Z,23.73
2023-08-12T10:12:50.310Z,23.86
2023-08-12T10:15:18.613Z,23.88
2023-08-12T10:17:47.468Z,23.89
2023-08-12T10:20:16.725Z,23.94
2023-08-12T10:22:46.408Z,23.97
2023-08-12T10:25:16.699Z,24.05
2023-08-12T10:27:46.263Z,24.14
2023-08-12T10:30:15.449Z,24.19
2023-08-12T10:32:43.617Z,24.23
2023-08-12T10:35:11.849Z,24.38
2023-08-12T10:37:39.885Z,24.48
2023-08-12T10:40:21.574Z,24.63
2023-08-12T10:42:52.503Z,24.79
2023-08-12T10:45:21.022Z,24.67
2023-08-12T10:47:54.232Z,24.64
2023-08-12T10:50:27.172Z,24.65
2023-08-12T10:52:55.967Z,24.70
2023-08-12T10:55:25.432Z,24.95
2023-08-12T10:57:57.315Z,24.98
2023-08-12T11:00:26.901Z,25.01
2023-08-12T11:02:57.492Z,25.10
2023-08-12T11:05:26.289Z,25.24
2023-08-12T11:07:59.723Z,25.44
2023-08-12T11:10:30.605Z,25.51
2023-08-12T11:13:02.014Z,25.48
2023-08-12T11:15:35.115Z,25.49
2023-08-12T11:18:05.638Z,25.51
2023-08-12T11:20:34.358Z,25.64
2023-08-12T11:23:03.401Z,25.53
2023-08-12T11:25:32.292Z,25.49
2023-08-12T11:28:01.985Z,25.63
2023-08-12T11:30:32.688Z,25.75
2023-08-12T11:33:02.380Z,25.94
2023-08-12T11:35:31.037Z,26.03
2023-08-12T11:38:00.589Z,26.11
2023-08-12T11:40:30.208Z,26.25
2023-08-12T11:42:58.356Z,25.96
2023-08-12T11:45:31.015Z,25.78
2023-08-12T11:47:59.350Z,25.72
2023-08-12T11:50:28.998Z,25.98
2023-08-12T11:52:58.240Z,26.06
2023-08-12T11:55:27.742Z,26.24
2023-08-12T11:57:55.760Z,26.16
2023-08-12T12:00:24.900Z,26.20
2023-08-12T12:02:56.700Z,26.32
2023-08-12T12:05:26.073Z,26.43
2023-08-12T12:07:54.697Z,26.68
2023-08-12T12:10:30.068Z,26.76
2023-08-12T12:13:01.870Z,26.82
2023-08-12T12:15:29.822Z,27.17
2023-08-12T12:17:59.263Z,26.81
2023-08-12T12:20:28.410Z,26.48
2023-08-12T12:22:56.945Z,26.36
2023-08-12T12:25:24.966Z,26.18
2023-08-12T12:27:55.283Z,25.98
2023-08-12T12:30:23.534Z,25.87
2023-08-12T12:32:52.645Z,26.14
2023-08-12T12:35:22.168Z,26.80
2023-08-12T12:37:50.179Z,27.27
2023-08-12T12:40:18.384Z,27.11
2023-08-12T12:42:46.309Z,26.81
2023-08-12T12:45:14.417Z,26.82
2023-08-12T12:47:42.413Z,27.19
2023-08-12T12:50:10.620Z,27.63
2023-08-12T12:52:40.916Z,27.77
2023-08-12T12:55:11.167Z,27.94
2023-08-12T12:57:39.146Z,28.04
2023-08-12T13:00:12.778Z,27.85
2023-08-12T13:02:41.891Z,27.86
2023-08-12T13:05:10.491Z,27.79
2023-08-12T13:07:39.820Z,27.81
2023-08-12T13:10:09.574Z,27.91
2023-08-12T13:12:37.681Z,27.74
2023-08-12T13:15:06.225Z,27.84
2023-08-12T13:17:34.332Z,28.02
2023-08-12T13:20:02.288Z,28.25
2023-08-12T13:22:30.305Z,28.31
2023-08-12T13:25:00.333Z,28.16
2023-08-12T13:27:29.003Z,28.39
2023-08-12T13:29:56.926Z,28.29
2023-08-12T13:32:25.200Z,28.24
2023-08-12T13:34:53.232Z,28.30
2023-08-12T13:37:21.416Z,28.32
2023-08-12T13:39:49.379Z,28.24
2023-08-12T13:42:18.669Z,27.98
2023-08-12T13:44:46.796Z,27.71
2023-08-12T13:47:15.096Z,27.56
2023-08-12T13:49:43.087Z,27.65
2023-08-12T13:52:11.398Z,27.60
2023-08-12T13:54:40.726Z,27.62
2023-08-12T13:57:08.729Z,27.50
2023-08-12T13:59:38.174Z,27.34
2023-08-12T14:02:06.377Z,27.27
2023-08-12T14:04:34.715Z,27.17
2023-08-12T14:07:02.865Z,26.99
2023-08-12T14:09:30.839Z,26.85
2023-08-12T14:11:59.077Z,26.80
2023-08-12T14:14:28.719Z,26.88
2023-08-12T14:16:58.384Z,27.01
2023-08-12T14:19:26.467Z,27.05
2023-08-12T14:21:54.445Z,26.94
2023-08-12T14:24:22.657Z,26.86
2023-08-12T14:26:50.683Z,26.79
2023-08-12T14:29:18.705Z,26.68
2023-08-12T14:31:46.730Z,26.55
2023-08-12T14:34:16.249Z,26.49
2023-08-12T14:36:44.334Z,26.58
2023-08-12T14:39:12.398Z,26.70
2023-08-12T14:41:40.419Z,26.81
2023-08-12T14:44:08.451Z,26.87
2023-08-12T14:46:36.504Z,26.95
2023-08-12T14:49:05.392Z,27.00
2023-08-12T14:51:34.874Z,27.08
2023-08-12T14:54:03.125Z,27.12
2023-08-12T14:56:31.155Z,27.19
2023-08-12T14:58:59.406Z,27.23
2023-08-12T15:01:29.068Z,27.23
2023-08-12T15:03:57.715Z,27.26
2023-08-12T15:06:25.938Z,27.29
2023-08-12T15:08:56.522Z,27.32
2023-08-12T15:11:25.071Z,27.31
2023-08-12T15:13:53.136Z,27.39
2023-08-12T15:16:21.257Z,27.39
2023-08-12T15:18:49.179Z,27.35
2023-08-12T15:21:17.940Z,27.33
2023-08-12T15:23:45.859Z,27.27
2023-08-12T15:26:19.141Z,27.20
2023-08-12T15:28:47.495Z,27.14
2023-08-12T15:31:16.026Z,27.07
2023-08-12T15:33:44.055Z,27.01
2023-08-12T15:36:11.961Z,27.00
2023-08-12T15:38:42.543Z,27.04
2023-08-12T15:41:16.598Z,27.06
2023-08-12T15:43:45.705Z,27.11
2023-08-12T15:46:14.242Z,27.15
2023-08-12T15:48:43.899Z,27.16
2023-08-12T15:51:12.024Z,27.08
2023-08-12T15:53:40.054Z,27.03
2023-08-12T15:56:08.072Z,26.97
2023-08-12T15:58:37.455Z,27.03
2023-08-12T16:01:05.569Z,26.90
2023-08-12T16:03:33.546Z,26.76
2023-08-12T16:06:01.746Z,26.64
2023-08-12T16:08:29.832Z,26.57
2023-08-12T16:10:57.823Z,26.50
2023-08-12T16:13:26.083Z,26.45
2023-08-12T16:15:55.986Z,26.40
2023-08-12T16:18:24.024Z,26.38
2023-08-12T16:20:52.004Z,26.36
2023-08-12T16:23:20.100Z,26.33
2023-08-12T16:25:48.339Z,26.37
2023-08-12T16:28:16.276Z,26.38
2023-08-12T16:30:44.197Z,26.42
2023-08-12T16:33:13.780Z,26.41
2023-08-12T16:35:41.857Z,26.38
2023-08-12T16:38:09.901Z,26.34
2023-08-12T16:40:38.480Z,26.34
2023-08-12T16:43:06.492Z,26.30
2023-08-12T16:45:34.764Z,26.25
2023-08-12T16:48:03.364Z,26.23
2023-08-12T16:50:33.228Z,26.20
2023-08-12T16:53:02.781Z,26.18
2023-08-12T16:55:32.146Z,26.14
2023-08-12T16:58:00.345Z,26.08
2023-08-12T17:00:28.363Z,26.06
2023-08-12T17:02:56.366Z,26.05
2023-08-12T17:05:24.406Z,26.02
2023-08-12T17:07:53.856Z,25.96
2023-08-12T17:10:21.943Z,25.93
2023-08-12T17:12:50.015Z,25.86
2023-08-12T17:15:17.980Z,25.80
2023-08-12T17:17:45.926Z,25.77
2023-08-12T17:20:14.053Z,25.72
2023-08-12T17:22:41.986Z,25.67
2023-08-12T17:25:12.024Z,25.63
2023-08-12T17:27:40.060Z,25.58
2023-08-12T17:30:09.187Z,25.53
2023-08-12T17:32:37.206Z,25.48
2023-08-12T17:35:05.637Z,25.44
2023-08-12T17:37:36.903Z,25.40
2023-08-12T17:40:05.882Z,25.35
2023-08-12T17:42:35.352Z,25.32
2023-08-12T17:45:03.417Z,25.28
2023-08-12T17:47:31.387Z,25.23
2023-08-12T17:50:00.854Z,25.18
2023-08-12T17:52:28.816Z,25.12
2023-08-12T17:54:57.041Z,25.05
2023-08-12T17:57:25.106Z,24.99
2023-08-12T17:59:54.771Z,24.92
2023-08-12T18:02:22.819Z,24.86
2023-08-12T18:04:51.010Z,24.80
2023-08-12T18:07:18.999Z,24.74
2023-08-12T18:09:47.037Z,24.69
2023-08-12T18:12:15.238Z,24.60
2023-08-12T18:14:43.478Z,24.54
2023-08-12T18:17:12.815Z,24.53
2023-08-12T18:19:40.810Z,24.53
2023-08-12T18:22:08.799Z,24.46
2023-08-12T18:24:36.931Z,24.44
2023-08-12T18:27:05.684Z,24.41
2023-08-12T18:29:33.882Z,24.40
2023-08-12T18:32:02.914Z,24.36
2023-08-12T18:34:32.509Z,24.32
2023-08-12T18:37:00.655Z,24.24
2023-08-12T18:39:28.819Z,24.11
2023-08-12T18:41:56.801Z,24.03
2023-08-12T18:44:25.141Z,23.98
2023-08-12T18:46:53.902Z,23.94
2023-08-12T18:49:22.404Z,23.89
2023-08-12T18:51:52.608Z,23.85
2023-08-12T18:54:21.359Z,23.80
2023-08-12T18:56:49.921Z,23.75
2023-08-12T18:59:18.398Z,23.71
2023-08-12T19:01:46.746Z,23.63
2023-08-12T19:04:14.716Z,23.60
2023-08-12T19:06:42.713Z,23.55
2023-08-12T19:09:12.274Z,23.45
2023-08-12T19:11:41.544Z,23.39
2023-08-12T19:14:09.678Z,23.29
2023-08-12T19:16:38.100Z,23.30
2023-08-12T19:19:06.196Z,23.29
2023-08-12T19:21:34.332Z,23.22
2023-08-12T19:24:02.553Z,23.13
2023-08-12T19:26:32.131Z,23.07
2023-08-12T19:29:01.712Z,23.07
2023-08-12T19:31:30.716Z,22.98
2023-08-12T19:33:59.521Z,22.93
2023-08-12T19:36:29.052Z,22.82
2023-08-12T19:38:58.644Z,22.79
2023-08-12T19:41:30.332Z,22.78
2023-08-12T19:44:02.032Z,22.77
2023-08-12T19:46:32.337Z,22.76
2023-08-12T19:49:01.558Z,22.74
2023-08-12T19:51:30.974Z,22.72
2023-08-12T19:53:59.573Z,22.70
2023-08-12T19:56:29.342Z,22.69
2023-08-12T19:58:57.384Z,22.65
2023-08-12T20:01:29.098Z,22.59
2023-08-12T20:03:57.645Z,22.52
2023-08-12T20:06:27.519Z,22.50
2023-08-12T20:08:58.366Z,22.45
2023-08-12T20:11:26.988Z,22.32
2023-08-12T20:13:55.682Z,22.24
2023-08-12T20:16:24.313Z,22.19
2023-08-12T20:18:55.452Z,22.14
2023-08-12T20:21:24.489Z,22.13
2023-08-12T20:23:53.410Z,22.06
2023-08-12T20:26:23.555Z,22.02
2023-08-12T20:28:52.984Z,22.03
2023-08-12T20:31:23.905Z,22.01
2023-08-12T20:33:53.915Z,22.04
2023-08-12T20:36:23.358Z,22.02
2023-08-12T20:38:52.076Z,21.94
2023-08-12T20:41:21.360Z,21.93
2023-08-12T20:43:49.832Z,21.87
2023-08-12T20:46:19.387Z,21.84
2023-08-12T20:48:48.443Z,21.81
2023-08-12T20:51:18.729Z,21.77
2023-08-12T20:53:47.760Z,21.70
2023-08-12T20:56:16.851Z,21.73
2023-08-12T20:58:45.321Z,21.74
2023-08-12T21:01:13.620Z,21.74
2023-08-12T21:03:41.846Z,21.65
2023-08-12T21:06:10.975Z,21.67
2023-08-12T21:08:40.259Z,21.63
2023-08-12T21:11:08.220Z,21.59
2023-08-12T21:13:36.205Z,21.52
2023-08-12T21:16:05.437Z,21.44
2023-08-12T21:18:33.506Z,21.43
2023-08-12T21:21:01.577Z,21.40
2023-08-12T21:23:29.513Z,21.35
2023-08-12T21:25:58.913Z,21.28
2023-08-12T21:30:54.599Z,21.23
2023-08-12T21:33:22.679Z,21.25
2023-08-12T21:35:51.203Z,21.08
2023-08-12T21:38:19.222Z,21.02
2023-08-12T21:40:47.226Z,21.06
2023-08-12T21:43:16.575Z,21.06
2023-08-12T21:45:44.624Z,21.05
2023-08-12T21:48:12.743Z,21.03
2023-08-12T21:50:40.694Z,21.01
2023-08-12T21:53:08.641Z,21.00
2023-08-12T21:55:36.618Z,20.94
2023-08-12T21:58:04.809Z,20.78
2023-08-12T22:00:34.112Z,20.79
2023-08-12T22:03:02.497Z,20.78
2023-08-12T22:05:31.646Z,20.69
2023-08-12T22:08:00.750Z,20.70
2023-08-12T22:10:28.663Z,20.70
2023-08-12T22:12:58.035Z,20.70
2023-08-12T22:15:26.455Z,20.70
2023-08-12T22:17:56.557Z,20.62
2023-08-12T22:20:24.768Z,20.57
2023-08-12T22:22:52.709Z,20.57
2023-08-12T22:25:20.709Z,20.51
2023-08-12T22:27:48.682Z,20.42
2023-08-12T22:30:16.709Z,20.39
2023-08-12T22:32:45.156Z,20.42
2023-08-12T22:35:14.601Z,20.37
2023-08-12T22:37:42.891Z,20.37
2023-08-12T22:40:11.120Z,20.33
2023-08-12T22:42:39.860Z,20.31
2023-08-12T22:45:09.590Z,20.26
2023-08-12T22:47:37.604Z,20.18
2023-08-12T22:50:07.413Z,20.17
2023-08-12T22:52:36.826Z,20.17
2023-08-12T22:55:05.639Z,20.18
2023-08-12T22:57:33.665Z,20.14
2023-08-12T23:00:01.703Z,20.06
2023-08-12T23:02:29.869Z,20.03
2023-08-12T23:04:59.005Z,20.03
2023-08-12T23:07:27.203Z,20.05
2023-08-12T23:09:59.822Z,20.04
2023-08-12T23:12:28.464Z,20.00
2023-08-12T23:14:56.730Z,19.87
2023-08-12T23:17:24.746Z,19.81
2023-08-12T23:19:52.817Z,19.83
2023-08-12T23:22:21.008Z,19.82
2023-08-12T23:24:49.004Z,19.87
2023-08-12T23:27:18.376Z,19.75
2023-08-12T23:29:46.426Z,19.69
2023-08-12T23:32:14.803Z,19.64
2023-08-12T23:34:43.030Z,19.58
2023-08-12T23:37:11.102Z,19.54
2023-08-12T23:39:39.091Z,19.48
2023-08-12T23:42:08.060Z,19.41
2023-08-12T23:44:37.386Z,19.41
2023-08-12T23:47:05.615Z,19.38
2023-08-12T23:49:34.374Z,19.37
2023-08-12T23:52:02.294Z,19.36
2023-08-12T23:54:30.191Z,19.35
2023-08-12T23:56:59.687Z,19.28
2023-08-12T23:59:27.705Z,19.24
